sensor_id;sensor_type;location;lat;lon;timestamp;P1;durP1;ratioP1;P2;durP2;ratioP2
7432;SDS011;32233;49.500;7.764;2023-05-23T00:01:08;61.07;;;39.00;;
7432;SDS011;32233;49.500;7.764;2023-05-23T00:03:35;63.70;;;40.50;;
7432;SDS011;32233;49.500;7.764;2023-05-23T00:06:04;59.90;;;36.53;;
7432;SDS011;32233;49.500;7.764;2023-05-23T00:08:32;59.20;;;37.80;;
7432;SDS011;32233;49.500;7.764;2023-05-23T00:10:58;55.37;;;37.93;;
7432;SDS011;32233;49.500;7.764;2023-05-23T00:13:25;55.73;;;37.70;;
7432;SDS011;32233;49.500;7.764;2023-05-23T00:15:52;57.70;;;38.40;;
7432;SDS011;32233;49.500;7.764;2023-05-23T00:18:18;55.10;;;36.07;;
7432;SDS011;32233;49.500;7.764;2023-05-23T00:20:45;56.47;;;36.47;;
7432;SDS011;32233;49.500;7.764;2023-05-23T00:23:12;55.37;;;36.87;;
7432;SDS011;32233;49.500;7.764;2023-05-23T00:25:44;54.47;;;37.23;;
7432;SDS011;32233;49.500;7.764;2023-05-23T00:28:18;60.27;;;40.13;;
7432;SDS011;32233;49.500;7.764;2023-05-23T00:30:44;60.30;;;39.60;;
7432;SDS011;32233;49.500;7.764;2023-05-23T00:33:11;60.87;;;39.73;;
7432;SDS011;32233;49.500;7.764;2023-05-23T00:35:40;66.97;;;41.00;;
7432;SDS011;32233;49.500;7.764;2023-05-23T00:38:07;60.57;;;39.53;;
7432;SDS011;32233;49.500;7.764;2023-05-23T00:40:36;60.97;;;39.93;;
7432;SDS011;32233;49.500;7.764;2023-05-23T00:43:03;56.83;;;39.13;;
7432;SDS011;32233;49.500;7.764;2023-05-23T00:45:29;61.10;;;41.70;;
7432;SDS011;32233;49.500;7.764;2023-05-23T00:47:56;57.40;;;39.47;;
7432;SDS011;32233;49.500;7.764;2023-05-23T00:50:25;56.63;;;39.27;;
7432;SDS011;32233;49.500;7.764;2023-05-23T00:52:55;52.57;;;37.80;;
7432;SDS011;32233;49.500;7.764;2023-05-23T00:55:24;58.00;;;40.47;;
7432;SDS011;32233;49.500;7.764;2023-05-23T00:57:53;57.23;;;39.43;;
7432;SDS011;32233;49.500;7.764;2023-05-23T01:00:22;57.60;;;40.40;;
7432;SDS011;32233;49.500;7.764;2023-05-23T01:02:50;62.17;;;42.13;;
7432;SDS011;32233;49.500;7.764;2023-05-23T01:05:19;55.97;;;39.80;;
7432;SDS011;32233;49.500;7.764;2023-05-23T01:07:48;59.23;;;41.70;;
7432;SDS011;32233;49.500;7.764;2023-05-23T01:10:18;61.73;;;41.17;;
7432;SDS011;32233;49.500;7.764;2023-05-23T01:15:26;59.23;;;40.07;;
7432;SDS011;32233;49.500;7.764;2023-05-23T01:17:59;56.90;;;39.90;;
7432;SDS011;32233;49.500;7.764;2023-05-23T01:20:37;65.47;;;42.53;;
7432;SDS011;32233;49.500;7.764;2023-05-23T01:23:21;59.60;;;41.47;;
7432;SDS011;32233;49.500;7.764;2023-05-23T01:28:57;59.93;;;39.67;;
7432;SDS011;32233;49.500;7.764;2023-05-23T01:31:38;55.90;;;38.20;;
7432;SDS011;32233;49.500;7.764;2023-05-23T01:34:11;61.50;;;40.43;;
7432;SDS011;32233;49.500;7.764;2023-05-23T01:36:39;58.20;;;42.77;;
7432;SDS011;32233;49.500;7.764;2023-05-23T01:39:08;56.80;;;39.90;;
7432;SDS011;32233;49.500;7.764;2023-05-23T01:41:35;58.90;;;38.93;;
7432;SDS011;32233;49.500;7.764;2023-05-23T01:44:03;57.13;;;39.23;;
7432;SDS011;32233;49.500;7.764;2023-05-23T01:46:30;51.77;;;36.83;;
7432;SDS011;32233;49.500;7.764;2023-05-23T01:48:59;57.20;;;39.50;;
7432;SDS011;32233;49.500;7.764;2023-05-23T01:51:27;55.40;;;38.03;;
7432;SDS011;32233;49.500;7.764;2023-05-23T01:53:55;49.13;;;35.43;;
7432;SDS011;32233;49.500;7.764;2023-05-23T01:56:23;55.30;;;38.20;;
7432;SDS011;32233;49.500;7.764;2023-05-23T01:58:50;56.43;;;39.07;;
7432;SDS011;32233;49.500;7.764;2023-05-23T02:01:17;56.30;;;37.03;;
7432;SDS011;32233;49.500;7.764;2023-05-23T02:03:44;56.10;;;37.83;;
7432;SDS011;32233;49.500;7.764;2023-05-23T02:06:10;58.17;;;39.53;;
7432;SDS011;32233;49.500;7.764;2023-05-23T02:08:37;56.60;;;38.03;;
7432;SDS011;32233;49.500;7.764;2023-05-23T02:11:04;53.77;;;37.77;;
7432;SDS011;32233;49.500;7.764;2023-05-23T02:13:30;52.23;;;35.70;;
7432;SDS011;32233;49.500;7.764;2023-05-23T02:15:57;46.70;;;34.07;;
7432;SDS011;32233;49.500;7.764;2023-05-23T02:18:23;50.43;;;36.50;;
7432;SDS011;32233;49.500;7.764;2023-05-23T02:20:51;56.57;;;38.70;;
7432;SDS011;32233;49.500;7.764;2023-05-23T02:23:18;54.50;;;37.90;;
7432;SDS011;32233;49.500;7.764;2023-05-23T02:25:44;52.40;;;37.53;;
7432;SDS011;32233;49.500;7.764;2023-05-23T02:28:11;52.53;;;36.07;;
7432;SDS011;32233;49.500;7.764;2023-05-23T02:30:38;48.93;;;34.73;;
7432;SDS011;32233;49.500;7.764;2023-05-23T02:33:05;48.90;;;34.47;;
7432;SDS011;32233;49.500;7.764;2023-05-23T02:35:32;56.67;;;37.63;;
7432;SDS011;32233;49.500;7.764;2023-05-23T02:37:59;48.23;;;35.93;;
7432;SDS011;32233;49.500;7.764;2023-05-23T02:40:26;48.17;;;35.27;;
7432;SDS011;32233;49.500;7.764;2023-05-23T02:42:53;50.83;;;36.27;;
7432;SDS011;32233;49.500;7.764;2023-05-23T02:45:22;52.57;;;36.17;;
7432;SDS011;32233;49.500;7.764;2023-05-23T02:47:49;53.67;;;37.13;;
7432;SDS011;32233;49.500;7.764;2023-05-23T02:50:16;55.80;;;38.17;;
7432;SDS011;32233;49.500;7.764;2023-05-23T02:52:43;53.17;;;37.27;;
7432;SDS011;32233;49.500;7.764;2023-05-23T02:55:09;51.47;;;35.67;;
7432;SDS011;32233;49.500;7.764;2023-05-23T02:57:41;50.27;;;36.23;;
7432;SDS011;32233;49.500;7.764;2023-05-23T03:00:07;52.63;;;37.07;;
7432;SDS011;32233;49.500;7.764;2023-05-23T03:02:35;52.43;;;36.30;;
7432;SDS011;32233;49.500;7.764;2023-05-23T03:05:02;53.00;;;35.83;;
7432;SDS011;32233;49.500;7.764;2023-05-23T03:07:29;49.00;;;35.37;;
7432;SDS011;32233;49.500;7.764;2023-05-23T03:09:55;46.87;;;34.43;;
7432;SDS011;32233;49.500;7.764;2023-05-23T03:12:22;48.73;;;34.63;;
7432;SDS011;32233;49.500;7.764;2023-05-23T03:14:49;47.63;;;34.53;;
7432;SDS011;32233;49.500;7.764;2023-05-23T03:17:15;51.03;;;34.80;;
7432;SDS011;32233;49.500;7.764;2023-05-23T03:19:42;54.10;;;35.70;;
7432;SDS011;32233;49.500;7.764;2023-05-23T03:22:09;48.83;;;34.53;;
7432;SDS011;32233;49.500;7.764;2023-05-23T03:24:35;49.60;;;35.20;;
7432;SDS011;32233;49.500;7.764;2023-05-23T03:27:02;49.03;;;35.00;;
7432;SDS011;32233;49.500;7.764;2023-05-23T03:29:29;51.53;;;35.17;;
7432;SDS011;32233;49.500;7.764;2023-05-23T03:31:56;46.97;;;34.67;;
7432;SDS011;32233;49.500;7.764;2023-05-23T03:34:23;45.90;;;33.03;;
7432;SDS011;32233;49.500;7.764;2023-05-23T03:36:51;51.07;;;34.83;;
7432;SDS011;32233;49.500;7.764;2023-05-23T03:39:18;51.47;;;34.43;;
7432;SDS011;32233;49.500;7.764;2023-05-23T03:41:45;48.43;;;32.97;;
7432;SDS011;32233;49.500;7.764;2023-05-23T03:44:12;47.43;;;33.57;;
7432;SDS011;32233;49.500;7.764;2023-05-23T03:46:40;43.07;;;31.37;;
7432;SDS011;32233;49.500;7.764;2023-05-23T03:49:07;43.73;;;30.80;;
7432;SDS011;32233;49.500;7.764;2023-05-23T03:51:34;34.90;;;27.53;;
7432;SDS011;32233;49.500;7.764;2023-05-23T03:54:01;33.73;;;26.90;;
7432;SDS011;32233;49.500;7.764;2023-05-23T03:56:28;35.93;;;27.60;;
7432;SDS011;32233;49.500;7.764;2023-05-23T03:58:55;32.40;;;25.67;;
7432;SDS011;32233;49.500;7.764;2023-05-23T04:01:21;32.47;;;24.57;;
7432;SDS011;32233;49.500;7.764;2023-05-23T04:03:48;30.53;;;23.60;;
7432;SDS011;32233;49.500;7.764;2023-05-23T04:06:16;31.87;;;24.00;;
7432;SDS011;32233;49.500;7.764;2023-05-23T04:08:44;29.10;;;23.30;;
7432;SDS011;32233;49.500;7.764;2023-05-23T04:11:12;32.47;;;24.13;;
7432;SDS011;32233;49.500;7.764;2023-05-23T04:13:40;31.57;;;24.57;;
7432;SDS011;32233;49.500;7.764;2023-05-23T04:16:09;30.63;;;22.83;;
7432;SDS011;32233;49.500;7.764;2023-05-23T04:18:36;34.10;;;24.73;;
7432;SDS011;32233;49.500;7.764;2023-05-23T04:21:06;33.23;;;24.40;;
7432;SDS011;32233;49.500;7.764;2023-05-23T04:23:37;30.87;;;23.83;;
7432;SDS011;32233;49.500;7.764;2023-05-23T04:26:05;30.93;;;23.20;;
7432;SDS011;32233;49.500;7.764;2023-05-23T04:28:34;28.17;;;22.10;;
7432;SDS011;32233;49.500;7.764;2023-05-23T04:31:01;29.37;;;23.73;;
7432;SDS011;32233;49.500;7.764;2023-05-23T04:33:31;30.27;;;23.27;;
7432;SDS011;32233;49.500;7.764;2023-05-23T04:36:01;26.43;;;21.07;;
7432;SDS011;32233;49.500;7.764;2023-05-23T04:38:28;31.40;;;22.30;;
7432;SDS011;32233;49.500;7.764;2023-05-23T04:40:55;25.60;;;21.37;;
7432;SDS011;32233;49.500;7.764;2023-05-23T04:43:49;27.67;;;21.93;;
7432;SDS011;32233;49.500;7.764;2023-05-23T04:46:26;24.70;;;20.23;;
7432;SDS011;32233;49.500;7.764;2023-05-23T04:49:09;26.97;;;21.27;;
7432;SDS011;32233;49.500;7.764;2023-05-23T04:51:36;28.17;;;21.73;;
7432;SDS011;32233;49.500;7.764;2023-05-23T04:54:29;26.77;;;20.33;;
7432;SDS011;32233;49.500;7.764;2023-05-23T04:56:58;29.23;;;21.73;;
7432;SDS011;32233;49.500;7.764;2023-05-23T04:59:26;30.27;;;21.47;;
7432;SDS011;32233;49.500;7.764;2023-05-23T05:01:53;27.83;;;19.83;;
7432;SDS011;32233;49.500;7.764;2023-05-23T05:04:20;25.43;;;20.13;;
7432;SDS011;32233;49.500;7.764;2023-05-23T05:06:49;27.23;;;20.27;;
7432;SDS011;32233;49.500;7.764;2023-05-23T05:09:16;26.30;;;20.60;;
7432;SDS011;32233;49.500;7.764;2023-05-23T05:11:43;24.10;;;18.47;;
7432;SDS011;32233;49.500;7.764;2023-05-23T05:14:09;27.67;;;20.33;;
7432;SDS011;32233;49.500;7.764;2023-05-23T05:16:36;22.97;;;18.37;;
7432;SDS011;32233;49.500;7.764;2023-05-23T05:19:03;25.17;;;18.40;;
7432;SDS011;32233;49.500;7.764;2023-05-23T05:21:30;23.40;;;17.60;;
7432;SDS011;32233;49.500;7.764;2023-05-23T05:23:57;23.93;;;17.27;;
7432;SDS011;32233;49.500;7.764;2023-05-23T05:26:25;24.07;;;17.20;;
7432;SDS011;32233;49.500;7.764;2023-05-23T05:28:52;21.73;;;16.60;;
7432;SDS011;32233;49.500;7.764;2023-05-23T05:31:20;23.73;;;16.93;;
7432;SDS011;32233;49.500;7.764;2023-05-23T05:33:47;21.63;;;15.73;;
7432;SDS011;32233;49.500;7.764;2023-05-23T05:36:15;21.47;;;15.47;;
7432;SDS011;32233;49.500;7.764;2023-05-23T05:38:43;20.13;;;14.90;;
7432;SDS011;32233;49.500;7.764;2023-05-23T05:41:10;18.60;;;14.97;;
7432;SDS011;32233;49.500;7.764;2023-05-23T05:43:41;21.03;;;13.63;;
7432;SDS011;32233;49.500;7.764;2023-05-23T05:46:07;16.83;;;13.00;;
7432;SDS011;32233;49.500;7.764;2023-05-23T05:48:34;17.33;;;13.47;;
7432;SDS011;32233;49.500;7.764;2023-05-23T05:51:05;15.77;;;12.63;;
7432;SDS011;32233;49.500;7.764;2023-05-23T05:53:32;14.73;;;11.97;;
7432;SDS011;32233;49.500;7.764;2023-05-23T05:56:01;15.10;;;11.53;;
7432;SDS011;32233;49.500;7.764;2023-05-23T05:58:30;16.27;;;11.37;;
7432;SDS011;32233;49.500;7.764;2023-05-23T06:00:59;13.77;;;11.33;;
7432;SDS011;32233;49.500;7.764;2023-05-23T06:03:26;14.97;;;12.10;;
7432;SDS011;32233;49.500;7.764;2023-05-23T06:05:54;17.93;;;12.40;;
7432;SDS011;32233;49.500;7.764;2023-05-23T06:08:20;16.00;;;12.07;;
7432;SDS011;32233;49.500;7.764;2023-05-23T06:10:47;15.93;;;11.60;;
7432;SDS011;32233;49.500;7.764;2023-05-23T06:13:15;15.00;;;12.13;;
7432;SDS011;32233;49.500;7.764;2023-05-23T06:15:45;14.90;;;11.67;;
7432;SDS011;32233;49.500;7.764;2023-05-23T06:18:12;14.20;;;11.23;;
7432;SDS011;32233;49.500;7.764;2023-05-23T06:20:39;13.57;;;11.70;;
7432;SDS011;32233;49.500;7.764;2023-05-23T06:23:11;15.00;;;12.13;;
7432;SDS011;32233;49.500;7.764;2023-05-23T06:25:38;17.40;;;11.67;;
7432;SDS011;32233;49.500;7.764;2023-05-23T06:28:05;13.00;;;10.57;;
7432;SDS011;32233;49.500;7.764;2023-05-23T06:30:31;15.80;;;11.67;;
7432;SDS011;32233;49.500;7.764;2023-05-23T06:33:00;13.53;;;10.70;;
7432;SDS011;32233;49.500;7.764;2023-05-23T06:35:27;13.63;;;10.80;;
7432;SDS011;32233;49.500;7.764;2023-05-23T06:37:53;14.30;;;10.73;;
7432;SDS011;32233;49.500;7.764;2023-05-23T06:40:20;13.30;;;9.73;;
7432;SDS011;32233;49.500;7.764;2023-05-23T06:42:48;12.23;;;9.37;;
7432;SDS011;32233;49.500;7.764;2023-05-23T06:45:41;10.93;;;8.23;;
7432;SDS011;32233;49.500;7.764;2023-05-23T06:48:11;11.57;;;8.47;;
7432;SDS011;32233;49.500;7.764;2023-05-23T06:50:39;11.13;;;8.93;;
7432;SDS011;32233;49.500;7.764;2023-05-23T06:53:07;10.33;;;8.80;;
7432;SDS011;32233;49.500;7.764;2023-05-23T06:55:34;10.77;;;8.93;;
7432;SDS011;32233;49.500;7.764;2023-05-23T06:58:01;11.00;;;8.27;;
7432;SDS011;32233;49.500;7.764;2023-05-23T07:00:30;8.97;;;7.60;;
7432;SDS011;32233;49.500;7.764;2023-05-23T07:03:07;8.67;;;6.40;;
7432;SDS011;32233;49.500;7.764;2023-05-23T07:05:34;8.33;;;6.17;;
7432;SDS011;32233;49.500;7.764;2023-05-23T07:08:07;7.17;;;6.20;;
7432;SDS011;32233;49.500;7.764;2023-05-23T07:10:38;7.20;;;5.97;;
7432;SDS011;32233;49.500;7.764;2023-05-23T07:13:20;6.30;;;5.70;;
7432;SDS011;32233;49.500;7.764;2023-05-23T07:15:46;6.67;;;5.97;;
7432;SDS011;32233;49.500;7.764;2023-05-23T07:18:13;7.83;;;5.83;;
7432;SDS011;32233;49.500;7.764;2023-05-23T07:20:40;6.27;;;5.67;;
7432;SDS011;32233;49.500;7.764;2023-05-23T07:23:15;6.77;;;5.83;;
7432;SDS011;32233;49.500;7.764;2023-05-23T07:25:43;7.20;;;5.43;;
7432;SDS011;32233;49.500;7.764;2023-05-23T07:28:32;6.77;;;5.23;;
7432;SDS011;32233;49.500;7.764;2023-05-23T07:31:00;6.37;;;5.50;;
7432;SDS011;32233;49.500;7.764;2023-05-23T07:33:27;5.87;;;5.37;;
7432;SDS011;32233;49.500;7.764;2023-05-23T07:35:59;6.30;;;5.57;;
7432;SDS011;32233;49.500;7.764;2023-05-23T07:38:26;6.13;;;5.43;;
7432;SDS011;32233;49.500;7.764;2023-05-23T07:40:52;6.70;;;5.77;;
7432;SDS011;32233;49.500;7.764;2023-05-23T07:43:35;6.63;;;5.47;;
7432;SDS011;32233;49.500;7.764;2023-05-23T07:46:02;6.50;;;5.80;;
7432;SDS011;32233;49.500;7.764;2023-05-23T07:48:29;7.33;;;6.43;;
7432;SDS011;32233;49.500;7.764;2023-05-23T07:50:56;6.07;;;5.40;;
7432;SDS011;32233;49.500;7.764;2023-05-23T07:53:22;5.83;;;5.23;;
7432;SDS011;32233;49.500;7.764;2023-05-23T07:55:50;7.23;;;5.20;;
7432;SDS011;32233;49.500;7.764;2023-05-23T07:58:18;6.07;;;5.47;;
7432;SDS011;32233;49.500;7.764;2023-05-23T08:00:46;6.00;;;5.40;;
7432;SDS011;32233;49.500;7.764;2023-05-23T08:03:31;6.80;;;6.10;;
7432;SDS011;32233;49.500;7.764;2023-05-23T08:06:04;6.20;;;5.57;;
7432;SDS011;32233;49.500;7.764;2023-05-23T08:08:32;6.33;;;5.73;;
7432;SDS011;32233;49.500;7.764;2023-05-23T08:10:59;6.43;;;5.83;;
7432;SDS011;32233;49.500;7.764;2023-05-23T08:13:33;6.30;;;5.47;;
7432;SDS011;32233;49.500;7.764;2023-05-23T08:16:18;6.43;;;5.83;;
7432;SDS011;32233;49.500;7.764;2023-05-23T08:18:45;6.17;;;5.20;;
7432;SDS011;32233;49.500;7.764;2023-05-23T08:21:12;5.93;;;5.40;;
7432;SDS011;32233;49.500;7.764;2023-05-23T08:23:38;7.00;;;6.30;;
7432;SDS011;32233;49.500;7.764;2023-05-23T08:26:11;6.00;;;5.40;;
7432;SDS011;32233;49.500;7.764;2023-05-23T08:28:41;6.67;;;5.80;;
7432;SDS011;32233;49.500;7.764;2023-05-23T08:31:08;6.47;;;5.83;;
7432;SDS011;32233;49.500;7.764;2023-05-23T08:33:34;6.97;;;6.17;;
7432;SDS011;32233;49.500;7.764;2023-05-23T08:36:01;7.40;;;6.60;;
7432;SDS011;32233;49.500;7.764;2023-05-23T08:38:28;6.63;;;5.90;;
7432;SDS011;32233;49.500;7.764;2023-05-23T08:41:11;6.67;;;6.07;;
7432;SDS011;32233;49.500;7.764;2023-05-23T08:43:44;6.50;;;5.90;;
7432;SDS011;32233;49.500;7.764;2023-05-23T08:46:17;6.47;;;5.87;;
7432;SDS011;32233;49.500;7.764;2023-05-23T08:48:46;7.73;;;6.23;;
7432;SDS011;32233;49.500;7.764;2023-05-23T08:51:17;6.50;;;5.90;;
7432;SDS011;32233;49.500;7.764;2023-05-23T08:53:47;6.60;;;6.00;;
7432;SDS011;32233;49.500;7.764;2023-05-23T08:56:20;6.43;;;5.83;;
7432;SDS011;32233;49.500;7.764;2023-05-23T08:58:49;6.10;;;5.53;;
7432;SDS011;32233;49.500;7.764;2023-05-23T09:01:19;5.20;;;4.80;;
7432;SDS011;32233;49.500;7.764;2023-05-23T09:03:51;5.40;;;4.90;;
7432;SDS011;32233;49.500;7.764;2023-05-23T09:06:34;5.23;;;4.80;;
7432;SDS011;32233;49.500;7.764;2023-05-23T09:09:00;5.37;;;4.97;;
7432;SDS011;32233;49.500;7.764;2023-05-23T09:11:27;5.30;;;4.80;;
7432;SDS011;32233;49.500;7.764;2023-05-23T09:13:55;5.03;;;4.50;;
7432;SDS011;32233;49.500;7.764;2023-05-23T09:16:23;6.93;;;4.87;;
7432;SDS011;32233;49.500;7.764;2023-05-23T09:18:54;4.83;;;4.43;;
7432;SDS011;32233;49.500;7.764;2023-05-23T09:21:23;4.47;;;4.07;;
7432;SDS011;32233;49.500;7.764;2023-05-23T09:23:58;4.77;;;4.37;;
7432;SDS011;32233;49.500;7.764;2023-05-23T09:26:26;4.83;;;4.40;;
7432;SDS011;32233;49.500;7.764;2023-05-23T09:28:56;6.53;;;4.73;;
7432;SDS011;32233;49.500;7.764;2023-05-23T09:31:27;4.77;;;4.37;;
7432;SDS011;32233;49.500;7.764;2023-05-23T09:33:57;4.77;;;4.37;;
7432;SDS011;32233;49.500;7.764;2023-05-23T09:36:28;5.00;;;4.60;;
7432;SDS011;32233;49.500;7.764;2023-05-23T09:38:55;5.13;;;4.63;;
7432;SDS011;32233;49.500;7.764;2023-05-23T09:41:23;5.30;;;4.13;;
7432;SDS011;32233;49.500;7.764;2023-05-23T09:43:50;4.80;;;4.40;;
7432;SDS011;32233;49.500;7.764;2023-05-23T09:46:20;3.97;;;3.67;;
7432;SDS011;32233;49.500;7.764;2023-05-23T09:48:47;5.10;;;4.70;;
7432;SDS011;32233;49.500;7.764;2023-05-23T09:51:18;4.70;;;4.37;;
7432;SDS011;32233;49.500;7.764;2023-05-23T09:53:49;5.03;;;4.63;;
7432;SDS011;32233;49.500;7.764;2023-05-23T09:56:16;5.20;;;4.40;;
7432;SDS011;32233;49.500;7.764;2023-05-23T09:58:46;4.40;;;4.10;;
7432;SDS011;32233;49.500;7.764;2023-05-23T10:01:14;5.10;;;4.47;;
7432;SDS011;32233;49.500;7.764;2023-05-23T10:03:47;4.37;;;4.07;;
7432;SDS011;32233;49.500;7.764;2023-05-23T10:06:16;5.10;;;4.43;;
7432;SDS011;32233;49.500;7.764;2023-05-23T10:08:51;4.83;;;4.47;;
7432;SDS011;32233;49.500;7.764;2023-05-23T10:14:01;5.30;;;4.80;;
7432;SDS011;32233;49.500;7.764;2023-05-23T10:16:37;4.83;;;4.43;;
7432;SDS011;32233;49.500;7.764;2023-05-23T10:21:48;6.27;;;5.20;;
7432;SDS011;32233;49.500;7.764;2023-05-23T10:24:20;5.30;;;4.90;;
7432;SDS011;32233;49.500;7.764;2023-05-23T10:26:47;5.43;;;5.03;;
7432;SDS011;32233;49.500;7.764;2023-05-23T10:29:14;5.53;;;5.13;;
7432;SDS011;32233;49.500;7.764;2023-05-23T10:31:41;5.40;;;4.90;;
7432;SDS011;32233;49.500;7.764;2023-05-23T10:42:40;6.63;;;6.03;;
7432;SDS011;32233;49.500;7.764;2023-05-23T10:45:21;6.33;;;5.73;;
7432;SDS011;32233;49.500;7.764;2023-05-23T10:47:50;6.23;;;5.73;;
7432;SDS011;32233;49.500;7.764;2023-05-23T10:50:31;6.63;;;6.03;;
7432;SDS011;32233;49.500;7.764;2023-05-23T10:53:03;8.93;;;6.70;;
7432;SDS011;32233;49.500;7.764;2023-05-23T10:55:31;7.10;;;6.40;;
7432;SDS011;32233;49.500;7.764;2023-05-23T11:06:27;7.77;;;5.93;;
7432;SDS011;32233;49.500;7.764;2023-05-23T11:09:01;6.63;;;6.03;;
7432;SDS011;32233;49.500;7.764;2023-05-23T11:19:38;7.40;;;6.33;;
7432;SDS011;32233;49.500;7.764;2023-05-23T11:22:08;7.40;;;6.50;;
7432;SDS011;32233;49.500;7.764;2023-05-23T11:30:03;9.80;;;7.83;;
7432;SDS011;32233;49.500;7.764;2023-05-23T11:32:38;8.73;;;6.93;;
7432;SDS011;32233;49.500;7.764;2023-05-23T11:35:06;7.63;;;6.83;;
7432;SDS011;32233;49.500;7.764;2023-05-23T11:37:39;7.23;;;6.40;;
7432;SDS011;32233;49.500;7.764;2023-05-23T11:40:25;10.23;;;8.17;;
7432;SDS011;32233;49.500;7.764;2023-05-23T11:42:52;8.73;;;7.83;;
7432;SDS011;32233;49.500;7.764;2023-05-23T11:45:19;9.23;;;6.93;;
7432;SDS011;32233;49.500;7.764;2023-05-23T11:47:47;7.40;;;6.50;;
7432;SDS011;32233;49.500;7.764;2023-05-23T11:50:17;9.20;;;6.53;;
7432;SDS011;32233;49.500;7.764;2023-05-23T11:52:45;10.17;;;7.13;;
7432;SDS011;32233;49.500;7.764;2023-05-23T11:55:17;9.93;;;8.00;;
7432;SDS011;32233;49.500;7.764;2023-05-23T11:57:44;10.90;;;8.30;;
7432;SDS011;32233;49.500;7.764;2023-05-23T12:00:11;8.53;;;7.10;;
7432;SDS011;32233;49.500;7.764;2023-05-23T12:02:42;8.73;;;6.97;;
7432;SDS011;32233;49.500;7.764;2023-05-23T12:05:10;7.27;;;6.57;;
7432;SDS011;32233;49.500;7.764;2023-05-23T12:07:39;9.43;;;7.00;;
7432;SDS011;32233;49.500;7.764;2023-05-23T12:10:10;8.07;;;7.27;;
7432;SDS011;32233;49.500;7.764;2023-05-23T12:12:37;9.47;;;8.17;;
7432;SDS011;32233;49.500;7.764;2023-05-23T12:15:04;7.87;;;7.17;;
7432;SDS011;32233;49.500;7.764;2023-05-23T12:17:31;10.40;;;8.07;;
7432;SDS011;32233;49.500;7.764;2023-05-23T12:19:58;9.73;;;8.10;;
7432;SDS011;32233;49.500;7.764;2023-05-23T12:22:26;8.60;;;7.67;;
7432;SDS011;32233;49.500;7.764;2023-05-23T12:24:53;9.20;;;8.30;;
7432;SDS011;32233;49.500;7.764;2023-05-23T12:27:28;9.33;;;7.93;;
7432;SDS011;32233;49.500;7.764;2023-05-23T12:30:03;11.33;;;8.53;;
7432;SDS011;32233;49.500;7.764;2023-05-23T12:32:41;10.87;;;9.60;;
7432;SDS011;32233;49.500;7.764;2023-05-23T12:35:09;10.33;;;8.47;;
7432;SDS011;32233;49.500;7.764;2023-05-23T12:37:39;10.50;;;8.50;;
7432;SDS011;32233;49.500;7.764;2023-05-23T12:40:14;9.37;;;8.33;;
7432;SDS011;32233;49.500;7.764;2023-05-23T12:42:48;9.90;;;8.50;;
7432;SDS011;32233;49.500;7.764;2023-05-23T12:45:22;10.10;;;9.10;;
7432;SDS011;32233;49.500;7.764;2023-05-23T12:47:56;9.27;;;8.37;;
7432;SDS011;32233;49.500;7.764;2023-05-23T12:50:22;9.30;;;8.40;;
7432;SDS011;32233;49.500;7.764;2023-05-23T12:52:49;9.00;;;8.13;;
7432;SDS011;32233;49.500;7.764;2023-05-23T12:55:16;9.10;;;8.23;;
7432;SDS011;32233;49.500;7.764;2023-05-23T12:57:42;10.27;;;8.33;;
7432;SDS011;32233;49.500;7.764;2023-05-23T13:00:09;9.30;;;8.40;;
7432;SDS011;32233;49.500;7.764;2023-05-23T13:02:36;8.67;;;7.80;;
7432;SDS011;32233;49.500;7.764;2023-05-23T13:05:04;8.43;;;7.63;;
7432;SDS011;32233;49.500;7.764;2023-05-23T13:07:31;8.37;;;7.50;;
7432;SDS011;32233;49.500;7.764;2023-05-23T13:09:58;10.80;;;8.57;;
7432;SDS011;32233;49.500;7.764;2023-05-23T13:12:24;9.37;;;8.43;;
7432;SDS011;32233;49.500;7.764;2023-05-23T13:14:51;9.67;;;8.77;;
7432;SDS011;32233;49.500;7.764;2023-05-23T13:17:18;9.57;;;8.33;;
7432;SDS011;32233;49.500;7.764;2023-05-23T13:19:44;9.33;;;8.33;;
7432;SDS011;32233;49.500;7.764;2023-05-23T13:22:11;10.07;;;9.17;;
7432;SDS011;32233;49.500;7.764;2023-05-23T13:24:38;11.20;;;9.37;;
7432;SDS011;32233;49.500;7.764;2023-05-23T13:27:06;10.33;;;9.23;;
7432;SDS011;32233;49.500;7.764;2023-05-23T13:29:32;9.50;;;8.50;;
7432;SDS011;32233;49.500;7.764;2023-05-23T13:31:59;10.30;;;9.30;;
7432;SDS011;32233;49.500;7.764;2023-05-23T13:34:26;10.03;;;9.03;;
7432;SDS011;32233;49.500;7.764;2023-05-23T13:36:54;11.33;;;9.27;;
7432;SDS011;32233;49.500;7.764;2023-05-23T13:39:20;10.33;;;9.23;;
7432;SDS011;32233;49.500;7.764;2023-05-23T13:41:48;10.67;;;9.47;;
7432;SDS011;32233;49.500;7.764;2023-05-23T13:44:16;10.73;;;9.20;;
7432;SDS011;32233;49.500;7.764;2023-05-23T13:46:43;12.37;;;8.63;;
7432;SDS011;32233;49.500;7.764;2023-05-23T13:49:09;9.87;;;8.77;;
7432;SDS011;32233;49.500;7.764;2023-05-23T13:51:36;11.83;;;9.10;;
7432;SDS011;32233;49.500;7.764;2023-05-23T13:54:03;11.53;;;9.40;;
7432;SDS011;32233;49.500;7.764;2023-05-23T13:56:31;11.07;;;9.63;;
7432;SDS011;32233;49.500;7.764;2023-05-23T13:58:58;11.87;;;8.90;;
7432;SDS011;32233;49.500;7.764;2023-05-23T14:01:25;11.40;;;9.67;;
7432;SDS011;32233;49.500;7.764;2023-05-23T14:03:52;10.80;;;9.33;;
7432;SDS011;32233;49.500;7.764;2023-05-23T14:06:19;9.93;;;8.93;;
7432;SDS011;32233;49.500;7.764;2023-05-23T14:08:46;10.67;;;8.60;;
7432;SDS011;32233;49.500;7.764;2023-05-23T14:11:13;9.53;;;8.60;;
7432;SDS011;32233;49.500;7.764;2023-05-23T14:13:39;10.47;;;8.93;;
7432;SDS011;32233;49.500;7.764;2023-05-23T14:16:06;10.00;;;8.50;;
7432;SDS011;32233;49.500;7.764;2023-05-23T14:18:32;10.43;;;8.70;;
7432;SDS011;32233;49.500;7.764;2023-05-23T14:20:59;11.73;;;8.87;;
7432;SDS011;32233;49.500;7.764;2023-05-23T14:23:25;11.80;;;9.40;;
7432;SDS011;32233;49.500;7.764;2023-05-23T14:25:52;10.43;;;8.83;;
7432;SDS011;32233;49.500;7.764;2023-05-23T14:28:18;10.70;;;9.63;;
7432;SDS011;32233;49.500;7.764;2023-05-23T14:30:45;10.37;;;8.90;;
7432;SDS011;32233;49.500;7.764;2023-05-23T14:33:11;10.33;;;8.93;;
7432;SDS011;32233;49.500;7.764;2023-05-23T14:35:38;10.63;;;9.63;;
7432;SDS011;32233;49.500;7.764;2023-05-23T14:38:05;13.93;;;9.87;;
7432;SDS011;32233;49.500;7.764;2023-05-23T14:40:32;13.97;;;9.17;;
7432;SDS011;32233;49.500;7.764;2023-05-23T14:42:58;10.97;;;9.40;;
7432;SDS011;32233;49.500;7.764;2023-05-23T14:45:25;11.87;;;9.37;;
7432;SDS011;32233;49.500;7.764;2023-05-23T14:47:51;12.17;;;9.20;;
7432;SDS011;32233;49.500;7.764;2023-05-23T14:50:18;12.43;;;9.33;;
7432;SDS011;32233;49.500;7.764;2023-05-23T14:52:44;9.23;;;8.17;;
7432;SDS011;32233;49.500;7.764;2023-05-23T14:55:11;13.33;;;8.63;;
7432;SDS011;32233;49.500;7.764;2023-05-23T14:57:38;9.93;;;8.90;;
7432;SDS011;32233;49.500;7.764;2023-05-23T15:00:04;12.00;;;8.63;;
7432;SDS011;32233;49.500;7.764;2023-05-23T15:02:31;11.30;;;8.40;;
7432;SDS011;32233;49.500;7.764;2023-05-23T15:04:58;9.23;;;8.27;;
7432;SDS011;32233;49.500;7.764;2023-05-23T15:07:25;10.87;;;7.63;;
7432;SDS011;32233;49.500;7.764;2023-05-23T15:09:52;10.53;;;7.47;;
7432;SDS011;32233;49.500;7.764;2023-05-23T15:12:18;6.97;;;6.27;;
7432;SDS011;32233;49.500;7.764;2023-05-23T15:14:46;7.33;;;6.10;;
7432;SDS011;32233;49.500;7.764;2023-05-23T15:17:12;7.10;;;5.50;;
7432;SDS011;32233;49.500;7.764;2023-05-23T15:19:45;7.70;;;6.50;;
7432;SDS011;32233;49.500;7.764;2023-05-23T15:22:11;6.17;;;5.57;;
7432;SDS011;32233;49.500;7.764;2023-05-23T15:24:58;7.17;;;6.47;;
7432;SDS011;32233;49.500;7.764;2023-05-23T15:27:25;8.50;;;5.83;;
7432;SDS011;32233;49.500;7.764;2023-05-23T15:29:52;6.60;;;5.90;;
7432;SDS011;32233;49.500;7.764;2023-05-23T15:32:18;8.27;;;6.30;;
7432;SDS011;32233;49.500;7.764;2023-05-23T15:34:45;9.17;;;5.97;;
7432;SDS011;32233;49.500;7.764;2023-05-23T15:37:12;7.77;;;6.87;;
7432;SDS011;32233;49.500;7.764;2023-05-23T15:39:38;10.73;;;7.93;;